Time;durP1;ratioP1;P1;durP2;ratioP2;P2;SDS_P1;SDS_P2;PMS_P1;PMS_P2;Temp;Humidity;BMP_temperature;BMP_pressure;BME280_temperature;BME280_humidity;BME280_pressure;Samples;Min_cycle;Max_cycle;Signal;HPM_P1;HPM_P2
2022/01/21 00:00:16;;;;;;;89.43;40.83;;;;;;;;;;4448179;32;20288;-55
2022/01/21 00:02:43;;;;;;;80.50;39.53;;;;;;;;;;4433300;32;20284;-54
2022/01/21 00:05:09;;;;;;;94.97;45.73;;;;;;;;;;4435477;32;20244;-55
2022/01/21 00:07:35;;;;;;;96.23;44.63;;;;;;;;;;4433001;32;20288;-54
2022/01/21 00:10:00;;;;;;;91.90;44.33;;;;;;;;;;4433390;32;20700;-54
2022/01/21 00:12:29;;;;;;;116.60;52.50;;;;;;;;;;4432528;32;20283;-55
2022/01/21 00:14:55;;;;;;;88.20;37.30;;;;;;;;;;4448362;32;20397;-55
2022/01/21 00:17:22;;;;;;;62.23;30.90;;;;;;;;;;4435504;32;20291;-55
2022/01/21 00:19:51;;;;;;;46.03;22.70;;;;;;;;;;4447330;32;20284;-56
2022/01/21 00:30:29;;;;;;;96.63;42.63;;;;;;;;;;4433721;32;20730;-54
2022/01/21 00:32:55;;;;;;;96.60;42.10;;;;;;;;;;4448611;32;20295;-54
2022/01/21 00:35:20;;;;;;;80.90;40.63;;;;;;;;;;4448626;32;20289;-53
2022/01/21 00:37:47;;;;;;;97.67;46.40;;;;;;;;;;4448159;32;20229;-55
2022/01/21 00:40:20;;;;;;;85.10;44.13;;;;;;;;;;4448046;32;20673;-54
2022/01/21 00:42:53;;;;;;;119.83;47.40;;;;;;;;;;4434948;32;20217;-54
2022/01/21 00:45:20;;;;;;;97.93;44.53;;;;;;;;;;4448213;32;20193;-53
2022/01/21 00:47:46;;;;;;;88.87;42.80;;;;;;;;;;4448149;32;20377;-54
2022/01/21 00:50:13;;;;;;;84.20;40.93;;;;;;;;;;4447985;32;20209;-54
2022/01/21 00:52:39;;;;;;;92.77;45.30;;;;;;;;;;4447674;32;20244;-53
2022/01/21 00:55:07;;;;;;;95.13;47.83;;;;;;;;;;4447860;32;20355;-60
2022/01/21 00:57:32;;;;;;;94.60;46.00;;;;;;;;;;4433618;32;20220;-54
2022/01/21 00:59:58;;;;;;;96.87;45.93;;;;;;;;;;4433133;32;20375;-54
2022/01/21 01:02:23;;;;;;;115.67;50.83;;;;;;;;;;4418190;32;20233;-54
2022/01/21 01:04:49;;;;;;;105.53;51.67;;;;;;;;;;4434545;32;20485;-53
2022/01/21 01:07:14;;;;;;;123.20;57.77;;;;;;;;;;4418421;32;20367;-54
2022/01/21 01:09:42;;;;;;;130.70;58.20;;;;;;;;;;4444568;32;20355;-54
2022/01/21 01:12:28;;;;;;;155.43;64.07;;;;;;;;;;4433880;32;20235;-53
2022/01/21 01:20:22;;;;;;;167.40;85.03;;;;;;;;;;4436435;32;20228;-55
2022/01/21 01:28:04;;;;;;;117.80;54.90;;;;;;;;;;4432631;32;20575;-55
2022/01/21 01:30:31;;;;;;;120.93;62.40;;;;;;;;;;4431852;32;20623;-55
2022/01/21 01:33:00;;;;;;;138.03;68.83;;;;;;;;;;4432070;32;20253;-55
2022/01/21 01:35:30;;;;;;;150.87;68.57;;;;;;;;;;4417990;32;20250;-54
2022/01/21 01:40:46;;;;;;;129.60;62.83;;;;;;;;;;4431983;32;20348;-54
2022/01/21 01:51:08;;;;;;;172.13;77.30;;;;;;;;;;4441942;32;20254;-52
2022/01/21 01:53:44;;;;;;;160.57;76.03;;;;;;;;;;4422482;32;20240;-53
2022/01/21 01:56:11;;;;;;;188.33;81.70;;;;;;;;;;4447437;32;20224;-53
2022/01/21 01:58:38;;;;;;;179.87;84.17;;;;;;;;;;4447253;32;20253;-54
2022/01/21 02:01:05;;;;;;;188.73;90.13;;;;;;;;;;4446706;32;20225;-53
2022/01/21 02:03:31;;;;;;;187.40;88.43;;;;;;;;;;4446976;32;20826;-52
2022/01/21 02:05:56;;;;;;;187.03;86.73;;;;;;;;;;4439722;32;20318;-53
2022/01/21 02:08:22;;;;;;;170.70;86.57;;;;;;;;;;4431949;32;21096;-53
2022/01/21 02:10:48;;;;;;;179.47;82.73;;;;;;;;;;4435392;32;20375;-54
2022/01/21 02:13:28;;;;;;;164.87;79.73;;;;;;;;;;4440540;32;20311;-54
2022/01/21 02:16:08;;;;;;;187.03;85.63;;;;;;;;;;4417648;32;20422;-54
2022/01/21 02:21:31;;;;;;;162.53;75.03;;;;;;;;;;4439810;32;20692;-55
2022/01/21 02:24:04;;;;;;;120.40;56.00;;;;;;;;;;4431649;32;20450;-54
2022/01/21 02:26:30;;;;;;;71.47;39.83;;;;;;;;;;4425596;32;20216;-54
2022/01/21 02:28:58;;;;;;;85.13;42.90;;;;;;;;;;4447246;32;20320;-54
2022/01/21 02:31:23;;;;;;;87.83;44.20;;;;;;;;;;4447054;32;20209;-54
2022/01/21 02:33:49;;;;;;;78.93;42.37;;;;;;;;;;4432628;32;20327;-54
2022/01/21 02:36:15;;;;;;;81.53;41.27;;;;;;;;;;4440997;32;20315;-51
2022/01/21 02:38:41;;;;;;;96.13;47.50;;;;;;;;;;4419856;32;20304;-52
2022/01/21 02:41:06;;;;;;;69.80;35.80;;;;;;;;;;4440122;32;20794;-54
2022/01/21 02:43:32;;;;;;;58.27;32.20;;;;;;;;;;4449927;32;20329;-52
2022/01/21 02:46:03;;;;;;;88.27;37.50;;;;;;;;;;4449701;32;20276;-54
2022/01/21 02:48:29;;;;;;;48.40;28.07;;;;;;;;;;4448851;32;20312;-53
2022/01/21 02:50:54;;;;;;;38.67;20.03;;;;;;;;;;4449878;32;20274;-53
2022/01/21 02:55:48;;;;;;;122.33;58.80;;;;;;;;;;4445924;32;20205;-52
2022/01/21 02:58:13;;;;;;;127.43;60.37;;;;;;;;;;4434526;32;20247;-52
2022/01/21 03:00:39;;;;;;;123.47;60.70;;;;;;;;;;4434235;32;20741;-53
2022/01/21 03:03:05;;;;;;;110.23;54.70;;;;;;;;;;4408358;32;20346;-53
2022/01/21 03:05:34;;;;;;;110.20;50.77;;;;;;;;;;4437816;32;20283;-54
2022/01/21 03:07:59;;;;;;;93.20;46.90;;;;;;;;;;4425299;32;20308;-53
2022/01/21 03:10:26;;;;;;;89.10;42.13;;;;;;;;;;4434648;32;20304;-52
2022/01/21 03:12:52;;;;;;;70.30;39.20;;;;;;;;;;4434028;32;20245;-53
2022/01/21 03:15:18;;;;;;;69.17;35.43;;;;;;;;;;4419867;32;20743;-52
2022/01/21 03:17:43;;;;;;;73.43;34.30;;;;;;;;;;4447776;32;20247;-53
2022/01/21 03:20:10;;;;;;;52.23;29.57;;;;;;;;;;4437532;32;20279;-52
2022/01/21 03:22:36;;;;;;;61.00;28.27;;;;;;;;;;4434500;32;20685;-53
2022/01/21 03:25:04;;;;;;;58.43;28.17;;;;;;;;;;4419771;32;20221;-53
2022/01/21 03:27:29;;;;;;;55.00;27.27;;;;;;;;;;4433624;32;20664;-53
2022/01/21 03:29:55;;;;;;;42.50;23.53;;;;;;;;;;4433662;32;20298;-52
2022/01/21 03:32:21;;;;;;;42.43;24.13;;;;;;;;;;4433756;32;20340;-54
2022/01/21 03:34:47;;;;;;;42.27;23.03;;;;;;;;;;4433723;32;20303;-54
2022/01/21 03:37:12;;;;;;;49.10;25.40;;;;;;;;;;4419121;32;20307;-54
2022/01/21 03:39:38;;;;;;;55.83;27.60;;;;;;;;;;4433526;32;20209;-55
2022/01/21 03:42:04;;;;;;;49.57;28.40;;;;;;;;;;4433543;32;20636;-54
2022/01/21 03:44:29;;;;;;;51.97;28.33;;;;;;;;;;4419300;32;20244;-53
2022/01/21 03:46:55;;;;;;;48.67;25.47;;;;;;;;;;4443861;32;20302;-53
2022/01/21 03:49:20;;;;;;;40.70;22.13;;;;;;;;;;4435019;32;20331;-55
2022/01/21 03:51:46;;;;;;;36.70;20.57;;;;;;;;;;4439345;32;20782;-55
2022/01/21 03:54:11;;;;;;;38.70;22.30;;;;;;;;;;4442626;32;20351;-55
2022/01/21 03:56:39;;;;;;;43.23;21.83;;;;;;;;;;4447890;32;20703;-55
2022/01/21 03:59:05;;;;;;;41.80;22.77;;;;;;;;;;4448975;32;20638;-56
2022/01/21 04:01:30;;;;;;;41.07;23.27;;;;;;;;;;4426855;32;20398;-56
2022/01/21 04:03:56;;;;;;;44.17;23.33;;;;;;;;;;4435461;32;20256;-55
2022/01/21 04:06:21;;;;;;;54.70;27.80;;;;;;;;;;4418733;32;20743;-54
2022/01/21 04:08:47;;;;;;;65.57;29.87;;;;;;;;;;4433291;32;20523;-54
2022/01/21 04:11:13;;;;;;;68.10;31.60;;;;;;;;;;4425150;32;20663;-54
2022/01/21 04:13:39;;;;;;;55.70;29.50;;;;;;;;;;4439105;32;20293;-53
2022/01/21 04:16:05;;;;;;;53.57;27.03;;;;;;;;;;4433217;32;20307;-56
2022/01/21 04:18:32;;;;;;;49.27;23.40;;;;;;;;;;4432706;32;20814;-52
2022/01/21 04:20:58;;;;;;;47.83;24.67;;;;;;;;;;4437044;32;20260;-53
2022/01/21 04:23:23;;;;;;;46.73;26.37;;;;;;;;;;4419124;32;20576;-53
2022/01/21 04:25:51;;;;;;;44.17;26.23;;;;;;;;;;4432833;32;20303;-53
2022/01/21 04:28:17;;;;;;;49.30;27.43;;;;;;;;;;4432590;32;20621;-53
2022/01/21 04:30:42;;;;;;;58.73;29.43;;;;;;;;;;4432762;32;20275;-55
2022/01/21 04:33:08;;;;;;;63.30;28.27;;;;;;;;;;4433323;32;20665;-54
2022/01/21 04:35:34;;;;;;;43.77;28.73;;;;;;;;;;4432394;32;20737;-56
2022/01/21 04:38:04;;;;;;;49.73;25.13;;;;;;;;;;4432892;32;20377;-55
2022/01/21 04:40:33;;;;;;;45.50;26.10;;;;;;;;;;4434291;32;20229;-55
2022/01/21 04:48:29;;;;;;;43.90;24.33;;;;;;;;;;4443116;32;20279;-54
2022/01/21 04:51:11;;;;;;;51.20;25.10;;;;;;;;;;4443816;32;20279;-56
2022/01/21 04:53:37;;;;;;;49.40;27.00;;;;;;;;;;4432807;32;20266;-55
2022/01/21 04:56:03;;;;;;;43.00;25.77;;;;;;;;;;4410669;32;20762;-56
2022/01/21 04:58:29;;;;;;;45.03;24.40;;;;;;;;;;4447822;32;20247;-56
2022/01/21 05:00:54;;;;;;;41.90;24.57;;;;;;;;;;4447227;32;20297;-55
2022/01/21 05:03:20;;;;;;;42.77;24.80;;;;;;;;;;4423806;32;20351;-53
2022/01/21 05:05:46;;;;;;;41.43;23.63;;;;;;;;;;4434037;32;20360;-56
2022/01/21 05:08:22;;;;;;;36.23;23.83;;;;;;;;;;4432050;32;20639;-55
2022/01/21 05:10:47;;;;;;;44.97;26.27;;;;;;;;;;4435583;32;20258;-54
2022/01/21 05:13:16;;;;;;;31.00;17.27;;;;;;;;;;4427096;32;20229;-53
2022/01/21 05:16:00;;;;;;;22.27;13.60;;;;;;;;;;4432052;32;20230;-53
2022/01/21 05:18:25;;;;;;;22.40;12.90;;;;;;;;;;4420263;32;20368;-54
2022/01/21 05:20:51;;;;;;;30.80;14.00;;;;;;;;;;4431933;32;20287;-54
2022/01/21 05:23:16;;;;;;;18.13;10.50;;;;;;;;;;4435395;32;20225;-54
2022/01/21 05:25:42;;;;;;;18.33;9.93;;;;;;;;;;4439978;32;20387;-54
2022/01/21 05:28:07;;;;;;;21.60;13.30;;;;;;;;;;4432165;32;20553;-55
2022/01/21 05:30:33;;;;;;;18.17;11.43;;;;;;;;;;4431375;32;20256;-54
2022/01/21 05:32:59;;;;;;;23.97;12.50;;;;;;;;;;4432040;32;20233;-54
2022/01/21 05:35:25;;;;;;;20.17;12.17;;;;;;;;;;4432945;32;20288;-55
2022/01/21 05:37:50;;;;;;;19.50;11.40;;;;;;;;;;4447432;32;20521;-55
2022/01/21 05:40:18;;;;;;;21.93;11.63;;;;;;;;;;4432792;32;20279;-54
2022/01/21 05:42:43;;;;;;;24.73;14.57;;;;;;;;;;4431469;32;20566;-55
2022/01/21 05:47:35;;;;;;;17.57;11.03;;;;;;;;;;4431203;32;20241;-55
2022/01/21 05:50:01;;;;;;;19.80;12.73;;;;;;;;;;4433259;32;20721;-53
2022/01/21 05:52:36;;;;;;;19.27;11.80;;;;;;;;;;4432765;32;20256;-54
2022/01/21 05:55:03;;;;;;;24.00;13.87;;;;;;;;;;4445427;32;20207;-54
2022/01/21 05:57:30;;;;;;;19.30;11.77;;;;;;;;;;4447092;32;20365;-55
2022/01/21 05:59:56;;;;;;;21.50;12.07;;;;;;;;;;4436393;32;20331;-54
2022/01/21 06:02:21;;;;;;;17.43;9.07;;;;;;;;;;4432587;32;20351;-54
2022/01/21 06:04:50;;;;;;;8.27;6.13;;;;;;;;;;4435630;32;20616;-53
2022/01/21 06:07:15;;;;;;;11.47;6.13;;;;;;;;;;4423630;32;20229;-54
2022/01/21 06:09:43;;;;;;;9.67;5.77;;;;;;;;;;4443537;32;20332;-54
2022/01/21 06:12:09;;;;;;;6.30;4.17;;;;;;;;;;4431659;32;20268;-54
2022/01/21 06:14:36;;;;;;;10.37;6.00;;;;;;;;;;4441476;32;20231;-54
2022/01/21 06:17:02;;;;;;;6.80;4.50;;;;;;;;;;4434634;32;20351;-54
2022/01/21 06:19:27;;;;;;;13.03;7.93;;;;;;;;;;4443438;32;20587;-54
2022/01/21 06:21:53;;;;;;;11.63;6.67;;;;;;;;;;4421454;32;20306;-54
2022/01/21 06:24:19;;;;;;;9.17;5.77;;;;;;;;;;4434038;32;20340;-54
2022/01/21 06:26:45;;;;;;;11.50;6.83;;;;;;;;;;4437504;32;20319;-54
2022/01/21 06:29:10;;;;;;;16.70;10.30;;;;;;;;;;4442218;32;20312;-54
2022/01/21 06:31:36;;;;;;;20.43;10.50;;;;;;;;;;4433701;32;20205;-55
2022/01/21 06:34:02;;;;;;;23.97;13.07;;;;;;;;;;4434083;32;20256;-55
2022/01/21 06:36:28;;;;;;;21.80;12.03;;;;;;;;;;4420829;32;20684;-56
2022/01/21 06:38:54;;;;;;;25.27;14.50;;;;;;;;;;4434141;32;20285;-55
2022/01/21 06:41:19;;;;;;;16.03;9.37;;;;;;;;;;4433990;32;20291;-56
2022/01/21 06:43:45;;;;;;;9.27;5.80;;;;;;;;;;4433397;32;20299;-55
2022/01/21 06:46:11;;;;;;;8.83;5.33;;;;;;;;;;4434066;32;20300;-55
2022/01/21 06:48:37;;;;;;;14.87;8.07;;;;;;;;;;4434032;32;20566;-54
2022/01/21 06:51:03;;;;;;;13.80;8.63;;;;;;;;;;4431414;32;20307;-56
2022/01/21 06:53:29;;;;;;;24.47;11.83;;;;;;;;;;4433233;32;20235;-56
2022/01/21 06:55:55;;;;;;;13.93;7.87;;;;;;;;;;4433718;32;20727;-57
2022/01/21 06:58:20;;;;;;;12.57;7.73;;;;;;;;;;4433506;32;20379;-56
2022/01/21 07:00:46;;;;;;;13.87;6.87;;;;;;;;;;4433391;32;20284;-57
2022/01/21 07:03:11;;;;;;;11.40;5.47;;;;;;;;;;4432796;32;20216;-57
2022/01/21 07:05:38;;;;;;;21.90;11.13;;;;;;;;;;4430431;32;20262;-56
2022/01/21 07:08:04;;;;;;;15.23;8.97;;;;;;;;;;4430898;32;20253;-57
2022/01/21 07:10:30;;;;;;;14.50;9.17;;;;;;;;;;4440894;32;20306;-56
2022/01/21 07:12:57;;;;;;;21.03;9.70;;;;;;;;;;4429313;32;20236;-55
2022/01/21 07:15:23;;;;;;;13.53;7.17;;;;;;;;;;4445710;32;20236;-56
2022/01/21 07:17:52;;;;;;;11.27;5.77;;;;;;;;;;4429270;32;20704;-55
2022/01/21 07:20:18;;;;;;;8.57;3.93;;;;;;;;;;4431968;32;20255;-55
2022/01/21 07:22:44;;;;;;;7.00;4.33;;;;;;;;;;4446251;32;20545;-57
2022/01/21 07:25:10;;;;;;;5.93;3.97;;;;;;;;;;4433427;32;20307;-61
2022/01/21 07:27:36;;;;;;;7.40;3.23;;;;;;;;;;4447409;32;20322;-56
2022/01/21 07:30:03;;;;;;;8.17;4.90;;;;;;;;;;4448271;32;20286;-56
2022/01/21 07:32:28;;;;;;;7.20;4.53;;;;;;;;;;4448551;32;20758;-56
2022/01/21 07:34:54;;;;;;;15.33;7.07;;;;;;;;;;4434166;32;20379;-56
2022/01/21 07:37:19;;;;;;;7.67;4.40;;;;;;;;;;4432974;32;20350;-56
2022/01/21 07:39:45;;;;;;;9.37;4.03;;;;;;;;;;4432445;32;20296;-56
2022/01/21 07:42:10;;;;;;;6.87;4.30;;;;;;;;;;4431278;32;20295;-56
2022/01/21 07:44:36;;;;;;;6.87;4.10;;;;;;;;;;4432672;32;20201;-57
2022/01/21 07:47:02;;;;;;;5.40;3.70;;;;;;;;;;4440790;32;20313;-55
2022/01/21 07:49:27;;;;;;;4.97;2.67;;;;;;;;;;4447357;32;20239;-56
2022/01/21 07:51:53;;;;;;;4.33;2.70;;;;;;;;;;4446925;32;20302;-56
2022/01/21 07:54:19;;;;;;;4.27;3.27;;;;;;;;;;4446809;32;20273;-56
2022/01/21 07:56:44;;;;;;;4.00;2.20;;;;;;;;;;4446442;32;20267;-57
2022/01/21 07:59:12;;;;;;;2.53;2.10;;;;;;;;;;4446974;32;20399;-56
2022/01/21 08:01:39;;;;;;;9.73;5.93;;;;;;;;;;4448069;32;20192;-56
2022/01/21 08:04:04;;;;;;;11.37;6.00;;;;;;;;;;4447574;32;20283;-56
2022/01/21 08:06:30;;;;;;;6.53;5.27;;;;;;;;;;4447666;32;20311;-56
2022/01/21 08:08:57;;;;;;;7.37;5.33;;;;;;;;;;4447947;32;20323;-57
2022/01/21 08:11:23;;;;;;;6.27;4.30;;;;;;;;;;4447905;32;20200;-55
2022/01/21 08:13:49;;;;;;;6.80;4.60;;;;;;;;;;4437765;32;20274;-55
2022/01/21 08:16:15;;;;;;;11.53;6.03;;;;;;;;;;4432488;32;20223;-56
2022/01/21 08:18:41;;;;;;;5.17;3.73;;;;;;;;;;4432002;32;20316;-57
2022/01/21 08:21:07;;;;;;;5.67;3.33;;;;;;;;;;4432433;32;20691;-56
2022/01/21 08:23:32;;;;;;;6.40;4.30;;;;;;;;;;4432198;32;20255;-56
2022/01/21 08:25:58;;;;;;;4.27;2.90;;;;;;;;;;4416975;32;20339;-55
2022/01/21 08:28:23;;;;;;;12.93;6.40;;;;;;;;;;4431542;32;20301;-55
2022/01/21 08:30:49;;;;;;;7.40;4.23;;;;;;;;;;4432245;32;20346;-58
2022/01/21 08:33:15;;;;;;;6.30;4.30;;;;;;;;;;4432037;32;20272;-56
2022/01/21 08:35:41;;;;;;;7.37;4.80;;;;;;;;;;4431787;32;20284;-56
2022/01/21 08:38:06;;;;;;;11.67;7.43;;;;;;;;;;4432329;32;20245;-57
2022/01/21 08:40:32;;;;;;;12.83;7.70;;;;;;;;;;4432271;32;20309;-55
2022/01/21 08:42:58;;;;;;;11.57;6.13;;;;;;;;;;4439649;32;20220;-57
2022/01/21 08:45:23;;;;;;;6.87;4.67;;;;;;;;;;4447590;32;20749;-56
2022/01/21 08:47:49;;;;;;;13.50;6.23;;;;;;;;;;4418199;32;20251;-55
2022/01/21 08:50:18;;;;;;;9.33;6.13;;;;;;;;;;4432371;32;20200;-57
2022/01/21 08:52:44;;;;;;;21.60;8.30;;;;;;;;;;4418093;32;20286;-56
2022/01/21 08:55:12;;;;;;;39.23;14.03;;;;;;;;;;4445662;32;20361;-58
2022/01/21 08:57:41;;;;;;;39.53;15.60;;;;;;;;;;4447343;32;20265;-57
2022/01/21 09:00:10;;;;;;;46.80;19.73;;;;;;;;;;4447448;32;20212;-57
2022/01/21 09:02:36;;;;;;;40.17;13.87;;;;;;;;;;4447044;32;20233;-56
2022/01/21 09:05:02;;;;;;;23.50;11.63;;;;;;;;;;4447270;32;20312;-56
2022/01/21 09:07:27;;;;;;;25.27;10.97;;;;;;;;;;4440187;32;20279;-56
2022/01/21 09:09:53;;;;;;;35.70;18.13;;;;;;;;;;4431803;32;20280;-55
2022/01/21 09:12:18;;;;;;;34.97;17.17;;;;;;;;;;4418125;32;20692;-57
2022/01/21 09:14:44;;;;;;;28.47;13.50;;;;;;;;;;4431869;32;20227;-56
2022/01/21 09:17:09;;;;;;;28.43;13.07;;;;;;;;;;4431991;32;20306;-56
2022/01/21 09:19:35;;;;;;;35.40;14.93;;;;;;;;;;4445246;32;20720;-56
2022/01/21 09:22:02;;;;;;;29.53;13.93;;;;;;;;;;4447369;32;20758;-56
2022/01/21 09:24:29;;;;;;;31.07;16.03;;;;;;;;;;4447345;32;20287;-56
2022/01/21 09:26:55;;;;;;;29.87;15.27;;;;;;;;;;4447130;32;20643;-55
2022/01/21 09:29:20;;;;;;;33.37;16.60;;;;;;;;;;4433068;32;20314;-56
2022/01/21 09:31:46;;;;;;;36.10;16.13;;;;;;;;;;4433289;32;20725;-57
2022/01/21 09:34:12;;;;;;;23.47;11.50;;;;;;;;;;4447004;32;20256;-56
2022/01/21 09:36:38;;;;;;;21.23;10.50;;;;;;;;;;4447578;32;20339;-57
2022/01/21 09:39:05;;;;;;;20.43;9.87;;;;;;;;;;4446530;32;20247;-55
2022/01/21 09:41:31;;;;;;;18.13;9.70;;;;;;;;;;4446588;32;20272;-57
2022/01/21 09:43:59;;;;;;;24.03;10.70;;;;;;;;;;4418308;32;20225;-56
2022/01/21 09:46:31;;;;;;;25.10;11.23;;;;;;;;;;4431029;32;20232;-57
2022/01/21 09:49:07;;;;;;;25.07;12.23;;;;;;;;;;4431107;32;20312;-56
2022/01/21 09:51:35;;;;;;;22.10;9.70;;;;;;;;;;4431570;32;20208;-57
2022/01/21 09:54:05;;;;;;;17.57;9.80;;;;;;;;;;4437612;32;20412;-56
2022/01/21 09:56:31;;;;;;;20.20;11.67;;;;;;;;;;4432898;32;20303;-57
2022/01/21 09:58:59;;;;;;;18.87;11.03;;;;;;;;;;4446821;32;20232;-56
2022/01/21 10:01:25;;;;;;;29.10;14.07;;;;;;;;;;4433032;32;20225;-58
2022/01/21 10:03:51;;;;;;;33.40;15.57;;;;;;;;;;4447004;32;20489;-56
2022/01/21 10:06:18;;;;;;;37.60;16.47;;;;;;;;;;4447487;32;20271;-56
2022/01/21 10:08:44;;;;;;;36.37;17.33;;;;;;;;;;4446925;32;20566;-57
2022/01/21 10:11:11;;;;;;;26.13;14.83;;;;;;;;;;4446959;32;20331;-57
2022/01/21 10:13:37;;;;;;;63.30;30.63;;;;;;;;;;4438005;32;20538;-57
2022/01/21 10:16:05;;;;;;;53.57;24.70;;;;;;;;;;4431394;32;20240;-57
2022/01/21 10:18:31;;;;;;;29.47;15.57;;;;;;;;;;4432039;32;20295;-56
2022/01/21 10:21:11;;;;;;;21.87;11.47;;;;;;;;;;4433421;32;20285;-57
2022/01/21 10:23:38;;;;;;;32.00;17.27;;;;;;;;;;4430862;32;20225;-58
2022/01/21 10:26:10;;;;;;;47.90;19.97;;;;;;;;;;4431375;32;20303;-57
2022/01/21 10:28:38;;;;;;;45.77;19.40;;;;;;;;;;4431042;32;20244;-59
2022/01/21 10:31:17;;;;;;;26.50;13.93;;;;;;;;;;4431981;32;20209;-58
2022/01/21 10:33:51;;;;;;;24.57;14.33;;;;;;;;;;4431439;32;20583;-56
2022/01/21 10:36:28;;;;;;;27.83;15.20;;;;;;;;;;4417517;32;20229;-57
2022/01/21 10:39:08;;;;;;;20.37;12.60;;;;;;;;;;4430745;32;20232;-57
2022/01/21 10:41:34;;;;;;;16.03;10.17;;;;;;;;;;4417363;32;20633;-57
2022/01/21 10:44:14;;;;;;;21.17;14.60;;;;;;;;;;4431274;32;20725;-56
2022/01/21 10:46:42;;;;;;;18.43;12.43;;;;;;;;;;4431005;32;20193;-57
2022/01/21 10:49:10;;;;;;;19.93;11.87;;;;;;;;;;4430777;32;20293;-57
2022/01/21 10:51:38;;;;;;;18.00;10.67;;;;;;;;;;4417270;32;20253;-56
2022/01/21 10:54:30;;;;;;;23.40;12.27;;;;;;;;;;4431859;32;20636;-57
2022/01/21 10:57:09;;;;;;;15.13;10.17;;;;;;;;;;4434878;32;20298;-57
2022/01/21 11:00:07;;;;;;;16.47;11.07;;;;;;;;;;4418690;32;20243;-57
2022/01/21 11:02:42;;;;;;;17.70;9.80;;;;;;;;;;4433291;32;20359;-57
2022/01/21 11:05:16;;;;;;;35.43;18.20;;;;;;;;;;4430015;32;20586;-57
2022/01/21 11:08:02;;;;;;;28.63;14.90;;;;;;;;;;4426172;32;20745;-56
2022/01/21 11:10:40;;;;;;;25.57;14.57;;;;;;;;;;4433172;32;20658;-56
2022/01/21 11:13:11;;;;;;;25.13;13.23;;;;;;;;;;4433897;32;20343;-57
2022/01/21 11:15:38;;;;;;;27.27;14.00;;;;;;;;;;4434069;32;20371;-56
2022/01/21 11:18:05;;;;;;;18.73;9.27;;;;;;;;;;4423576;32;20558;-57
2022/01/21 11:20:35;;;;;;;10.73;4.93;;;;;;;;;;4423201;32;20310;-56
2022/01/21 11:23:01;;;;;;;9.17;4.93;;;;;;;;;;4448957;32;20799;-56
2022/01/21 11:25:50;;;;;;;5.97;3.57;;;;;;;;;;4449804;32;20295;-56
2022/01/21 11:28:27;;;;;;;7.00;4.43;;;;;;;;;;4449247;32;20499;-57
2022/01/21 11:30:54;;;;;;;14.97;8.43;;;;;;;;;;4449732;32;20570;-57
2022/01/21 11:33:21;;;;;;;15.33;7.73;;;;;;;;;;4435321;32;20381;-56
2022/01/21 11:35:52;;;;;;;12.80;6.07;;;;;;;;;;4449538;32;20255;-57
2022/01/21 11:38:19;;;;;;;9.57;5.10;;;;;;;;;;4435051;32;20719;-56
2022/01/21 11:40:45;;;;;;;19.80;6.20;;;;;;;;;;4449009;32;20288;-56
2022/01/21 11:43:12;;;;;;;6.77;4.50;;;;;;;;;;4449260;32;20399;-56
2022/01/21 11:50:50;;;;;;;13.37;6.37;;;;;;;;;;4449101;32;20261;-57
2022/01/21 11:53:45;;;;;;;7.97;5.00;;;;;;;;;;4434775;32;20335;-56
2022/01/21 11:56:31;;;;;;;17.30;8.17;;;;;;;;;;4449196;32;20356;-56
2022/01/21 12:01:56;;;;;;;10.83;6.97;;;;;;;;;;4449395;32;20201;-57
2022/01/21 12:04:30;;;;;;;11.67;6.63;;;;;;;;;;4444173;32;20251;-57
2022/01/21 12:06:59;;;;;;;23.43;12.10;;;;;;;;;;4437105;32;20286;-58
2022/01/21 12:09:56;;;;;;;21.23;11.43;;;;;;;;;;4448632;32;20249;-57
2022/01/21 12:12:24;;;;;;;23.87;10.77;;;;;;;;;;4447569;32;20247;-57
2022/01/21 12:14:55;;;;;;;25.37;13.20;;;;;;;;;;4432281;32;20201;-57
2022/01/21 12:17:41;;;;;;;9.10;5.80;;;;;;;;;;4433118;32;20415;-57
2022/01/21 12:20:07;;;;;;;12.43;6.40;;;;;;;;;;4432975;32;20207;-57
2022/01/21 12:22:33;;;;;;;19.87;8.33;;;;;;;;;;4439811;32;20275;-57
2022/01/21 12:25:10;;;;;;;32.30;16.37;;;;;;;;;;4448417;32;20631;-56
2022/01/21 12:27:37;;;;;;;15.17;7.27;;;;;;;;;;4428506;32;20627;-56
2022/01/21 12:30:23;;;;;;;7.70;4.70;;;;;;;;;;4419796;32;20225;-57
2022/01/21 12:33:06;;;;;;;6.87;4.50;;;;;;;;;;4418833;32;20562;-57
2022/01/21 12:35:33;;;;;;;10.37;5.90;;;;;;;;;;4433186;32;20244;-57
2022/01/21 12:41:23;;;;;;;13.50;7.00;;;;;;;;;;4432954;32;20221;-57
2022/01/21 12:44:00;;;;;;;12.93;8.30;;;;;;;;;;4432904;32;20565;-57
2022/01/21 12:46:25;;;;;;;12.50;7.93;;;;;;;;;;4433259;32;20243;-57
2022/01/21 12:48:55;;;;;;;33.63;13.93;;;;;;;;;;4432517;32;20260;-57
2022/01/21 12:56:45;;;;;;;13.67;7.37;;;;;;;;;;4421461;32;20216;-57
2022/01/21 12:59:22;;;;;;;18.50;10.13;;;;;;;;;;4432934;32;20307;-58
2022/01/21 13:01:48;;;;;;;12.60;7.60;;;;;;;;;;4419030;32;20232;-58
2022/01/21 13:04:35;;;;;;;15.97;7.53;;;;;;;;;;4437565;32;20303;-57
2022/01/21 13:07:23;;;;;;;14.37;6.93;;;;;;;;;;4444235;32;20283;-58
2022/01/21 13:10:08;;;;;;;14.33;8.30;;;;;;;;;;4432765;32;20210;-57
2022/01/21 13:15:48;;;;;;;21.37;9.97;;;;;;;;;;4432784;32;20220;-58
2022/01/21 13:18:17;;;;;;;13.37;7.40;;;;;;;;;;4437534;32;20291;-57
2022/01/21 13:20:46;;;;;;;13.00;7.67;;;;;;;;;;4447314;32;20220;-58
2022/01/21 13:23:13;;;;;;;22.37;8.20;;;;;;;;;;4435618;32;20289;-57
2022/01/21 13:25:39;;;;;;;18.00;8.20;;;;;;;;;;4437325;32;20632;-59
2022/01/21 13:28:05;;;;;;;26.90;14.53;;;;;;;;;;4447961;32;20310;-58
2022/01/21 13:30:37;;;;;;;33.27;14.43;;;;;;;;;;4447933;32;20307;-58
2022/01/21 13:33:08;;;;;;;34.27;16.57;;;;;;;;;;4448014;32;20625;-58
2022/01/21 13:35:36;;;;;;;58.40;25.03;;;;;;;;;;4447786;32;20200;-58
2022/01/21 13:38:07;;;;;;;50.93;25.13;;;;;;;;;;4434401;32;20727;-57
2022/01/21 13:40:57;;;;;;;64.50;29.67;;;;;;;;;;4433809;32;20212;-57
2022/01/21 13:43:28;;;;;;;46.27;21.57;;;;;;;;;;4448083;32;20848;-57
2022/01/21 13:45:56;;;;;;;34.37;16.17;;;;;;;;;;4447506;32;20256;-57
2022/01/21 13:48:23;;;;;;;24.00;14.13;;;;;;;;;;4447861;32;20256;-56
2022/01/21 13:50:49;;;;;;;25.53;14.10;;;;;;;;;;4447792;32;20272;-57
2022/01/21 13:53:15;;;;;;;38.40;16.50;;;;;;;;;;4447783;32;20692;-57
2022/01/21 13:55:47;;;;;;;29.17;13.07;;;;;;;;;;4433568;32;20310;-59
2022/01/21 13:58:17;;;;;;;79.93;30.13;;;;;;;;;;4447969;32;20599;-57
2022/01/21 14:00:44;;;;;;;54.00;21.70;;;;;;;;;;4433267;32;20236;-57
2022/01/21 14:03:13;;;;;;;27.63;12.53;;;;;;;;;;4447241;32;20221;-58
2022/01/21 14:05:53;;;;;;;34.57;16.47;;;;;;;;;;4447479;32;20208;-57
2022/01/21 14:08:24;;;;;;;34.07;16.17;;;;;;;;;;4433978;32;20372;-57
2022/01/21 14:10:55;;;;;;;24.27;14.50;;;;;;;;;;4447801;32;20578;-57
2022/01/21 14:13:21;;;;;;;20.70;12.03;;;;;;;;;;4440778;32;20315;-57
2022/01/21 14:15:46;;;;;;;16.50;10.27;;;;;;;;;;4433349;32;20659;-58
2022/01/21 14:18:12;;;;;;;40.33;18.97;;;;;;;;;;4447503;32;20290;-58
2022/01/21 14:20:39;;;;;;;37.37;22.73;;;;;;;;;;4447402;32;20313;-58
2022/01/21 14:23:05;;;;;;;26.27;13.47;;;;;;;;;;4433385;32;20331;-58
2022/01/21 14:25:31;;;;;;;20.93;10.40;;;;;;;;;;4447692;32;20303;-57
2022/01/21 14:27:56;;;;;;;18.60;11.20;;;;;;;;;;4440316;32;20404;-57
2022/01/21 14:30:23;;;;;;;22.00;11.23;;;;;;;;;;4432856;32;20268;-57
2022/01/21 14:32:54;;;;;;;40.07;17.07;;;;;;;;;;4419214;32;20438;-57
2022/01/21 14:35:30;;;;;;;40.97;19.27;;;;;;;;;;4435740;32;20218;-57
2022/01/21 14:38:06;;;;;;;25.53;15.43;;;;;;;;;;4435464;32;20294;-57
2022/01/21 14:40:36;;;;;;;26.07;11.23;;;;;;;;;;4435229;32;20595;-57
2022/01/21 14:43:11;;;;;;;31.53;17.10;;;;;;;;;;4421634;32;20346;-56
2022/01/21 14:45:38;;;;;;;25.90;13.53;;;;;;;;;;4435362;32;20201;-57
2022/01/21 14:48:19;;;;;;;22.80;9.17;;;;;;;;;;4421180;32;20245;-57
2022/01/21 14:50:47;;;;;;;27.20;13.90;;;;;;;;;;4435206;32;20268;-56
2022/01/21 14:53:13;;;;;;;25.87;12.23;;;;;;;;;;4435513;32;20293;-56
2022/01/21 14:55:39;;;;;;;26.10;12.23;;;;;;;;;;4435348;32;20377;-57
2022/01/21 14:58:20;;;;;;;36.97;14.63;;;;;;;;;;4421466;32;20346;-55
2022/01/21 15:00:51;;;;;;;19.07;9.70;;;;;;;;;;4409222;32;20265;-56
2022/01/21 15:03:25;;;;;;;20.37;10.23;;;;;;;;;;4435480;32;20237;-56
2022/01/21 15:05:54;;;;;;;22.17;14.00;;;;;;;;;;4449761;32;20269;-56
2022/01/21 15:08:39;;;;;;;24.87;15.23;;;;;;;;;;4423760;32;20734;-57
2022/01/21 15:11:41;;;;;;;30.03;14.03;;;;;;;;;;4435206;32;20213;-56
2022/01/21 15:14:27;;;;;;;40.77;18.10;;;;;;;;;;4445869;32;20216;-57
2022/01/21 15:17:00;;;;;;;36.10;19.10;;;;;;;;;;4450371;32;20329;-57
2022/01/21 15:19:36;;;;;;;36.87;16.83;;;;;;;;;;4437417;32;20334;-56
2022/01/21 15:22:09;;;;;;;33.33;17.90;;;;;;;;;;4434853;32;20552;-57
2022/01/21 15:24:35;;;;;;;41.63;20.00;;;;;;;;;;4434909;32;20233;-56
2022/01/21 15:27:00;;;;;;;32.77;19.10;;;;;;;;;;4435171;32;20287;-56
2022/01/21 15:29:27;;;;;;;46.57;19.43;;;;;;;;;;4450325;32;20614;-57
2022/01/21 15:31:53;;;;;;;36.27;19.53;;;;;;;;;;4450271;32;20216;-57